sensor_id;sensor_type;location;lat;lon;timestamp;temperature;humidity
11925;DHT22;6022;48.768;18.608;2023-02-25T00:01:41;7.60;99.90
11925;DHT22;6022;48.768;18.608;2023-02-25T00:04:32;7.20;99.90
11925;DHT22;6022;48.768;18.608;2023-02-25T00:07:00;7.60;99.90
11925;DHT22;6022;48.768;18.608;2023-02-25T00:09:40;7.50;99.90
11925;DHT22;6022;48.768;18.608;2023-02-25T00:12:09;7.50;99.90
11925;DHT22;6022;48.768;18.608;2023-02-25T00:14:41;7.50;99.90
11925;DHT22;6022;48.768;18.608;2023-02-25T00:17:08;7.50;99.90
11925;DHT22;6022;48.768;18.608;2023-02-25T00:19:36;7.50;99.90
11925;DHT22;6022;48.768;18.608;2023-02-25T00:22:21;7.50;99.90
11925;DHT22;6022;48.768;18.608;2023-02-25T00:24:54;7.40;99.90
11925;DHT22;6022;48.768;18.608;2023-02-25T00:27:26;7.50;99.90
11925;DHT22;6022;48.768;18.608;2023-02-25T00:29:56;7.50;99.90
11925;DHT22;6022;48.768;18.608;2023-02-25T00:32:26;7.40;99.90
11925;DHT22;6022;48.768;18.608;2023-02-25T00:34:56;7.50;99.90
11925;DHT22;6022;48.768;18.608;2023-02-25T00:37:23;8.50;99.90
11925;DHT22;6022;48.768;18.608;2023-02-25T00:39:58;7.60;99.90
11925;DHT22;6022;48.768;18.608;2023-02-25T00:42:26;7.50;99.90
11925;DHT22;6022;48.768;18.608;2023-02-25T00:45:00;7.50;99.90
11925;DHT22;6022;48.768;18.608;2023-02-25T00:47:40;7.40;99.90
11925;DHT22;6022;48.768;18.608;2023-02-25T00:50:15;7.30;99.90
11925;DHT22;6022;48.768;18.608;2023-02-25T00:52:42;7.50;99.90
11925;DHT22;6022;48.768;18.608;2023-02-25T00:55:13;7.40;99.90
11925;DHT22;6022;48.768;18.608;2023-02-25T00:57:42;7.50;99.90
11925;DHT22;6022;48.768;18.608;2023-02-25T01:00:36;7.40;99.90
11925;DHT22;6022;48.768;18.608;2023-02-25T01:03:16;7.50;99.90
11925;DHT22;6022;48.768;18.608;2023-02-25T01:05:44;7.30;99.90
11925;DHT22;6022;48.768;18.608;2023-02-25T01:08:17;7.70;99.90
11925;DHT22;6022;48.768;18.608;2023-02-25T01:10:49;7.60;99.90
11925;DHT22;6022;48.768;18.608;2023-02-25T01:13:20;7.50;99.90
11925;DHT22;6022;48.768;18.608;2023-02-25T01:15:49;7.10;99.90
11925;DHT22;6022;48.768;18.608;2023-02-25T01:18:16;7.10;99.90
11925;DHT22;6022;48.768;18.608;2023-02-25T01:20:49;7.50;99.90
11925;DHT22;6022;48.768;18.608;2023-02-25T01:23:20;7.10;99.90
11925;DHT22;6022;48.768;18.608;2023-02-25T01:26:07;7.30;99.90
11925;DHT22;6022;48.768;18.608;2023-02-25T01:28:40;7.20;99.90
11925;DHT22;6022;48.768;18.608;2023-02-25T01:31:15;7.30;99.90
11925;DHT22;6022;48.768;18.608;2023-02-25T01:33:47;7.40;99.90
11925;DHT22;6022;48.768;18.608;2023-02-25T01:36:15;7.30;99.90
11925;DHT22;6022;48.768;18.608;2023-02-25T01:38:45;7.60;99.90
11925;DHT22;6022;48.768;18.608;2023-02-25T01:41:13;7.30;99.90
11925;DHT22;6022;48.768;18.608;2023-02-25T01:43:41;7.30;99.90
11925;DHT22;6022;48.768;18.608;2023-02-25T01:46:09;7.30;99.90
11925;DHT22;6022;48.768;18.608;2023-02-25T01:48:39;7.30;99.90
11925;DHT22;6022;48.768;18.608;2023-02-25T01:51:09;7.30;99.90
11925;DHT22;6022;48.768;18.608;2023-02-25T01:53:45;7.60;99.90
11925;DHT22;6022;48.768;18.608;2023-02-25T01:56:16;7.30;99.90
11925;DHT22;6022;48.768;18.608;2023-02-25T01:58:47;7.30;99.90
11925;DHT22;6022;48.768;18.608;2023-02-25T02:01:19;7.30;99.90
11925;DHT22;6022;48.768;18.608;2023-02-25T02:03:50;7.40;99.90
11925;DHT22;6022;48.768;18.608;2023-02-25T02:06:27;7.60;99.90
11925;DHT22;6022;48.768;18.608;2023-02-25T02:09:02;7.20;99.90
11925;DHT22;6022;48.768;18.608;2023-02-25T02:11:33;7.60;99.90
11925;DHT22;6022;48.768;18.608;2023-02-25T02:14:02;7.20;99.90
11925;DHT22;6022;48.768;18.608;2023-02-25T02:22:26;7.10;99.90
11925;DHT22;6022;48.768;18.608;2023-02-25T02:31:28;6.80;99.90
11925;DHT22;6022;48.768;18.608;2023-02-25T02:37:40;6.30;99.90
11925;DHT22;6022;48.768;18.608;2023-02-25T02:43:49;6.40;99.90
11925;DHT22;6022;48.768;18.608;2023-02-25T02:46:22;6.40;99.90
11925;DHT22;6022;48.768;18.608;2023-02-25T02:49:05;6.50;99.90
11925;DHT22;6022;48.768;18.608;2023-02-25T02:51:43;6.50;99.90
11925;DHT22;6022;48.768;18.608;2023-02-25T02:54:13;6.50;99.90
11925;DHT22;6022;48.768;18.608;2023-02-25T02:56:44;6.50;99.90
11925;DHT22;6022;48.768;18.608;2023-02-25T02:59:27;6.80;99.90
11925;DHT22;6022;48.768;18.608;2023-02-25T03:05:08;6.60;99.90
11925;DHT22;6022;48.768;18.608;2023-02-25T03:07:43;6.40;99.90
11925;DHT22;6022;48.768;18.608;2023-02-25T03:10:19;6.40;99.90
11925;DHT22;6022;48.768;18.608;2023-02-25T03:12:49;6.40;99.90
11925;DHT22;6022;48.768;18.608;2023-02-25T03:15:17;6.60;99.90
11925;DHT22;6022;48.768;18.608;2023-02-25T03:21:25;6.30;99.90
11925;DHT22;6022;48.768;18.608;2023-02-25T03:28:03;6.50;99.90
11925;DHT22;6022;48.768;18.608;2023-02-25T03:30:43;6.40;99.90
11925;DHT22;6022;48.768;18.608;2023-02-25T03:33:47;6.60;99.90
11925;DHT22;6022;48.768;18.608;2023-02-25T03:36:27;6.40;99.90
11925;DHT22;6022;48.768;18.608;2023-02-25T03:39:07;6.30;99.90
11925;DHT22;6022;48.768;18.608;2023-02-25T03:41:43;6.30;99.90
11925;DHT22;6022;48.768;18.608;2023-02-25T03:47:10;6.20;99.90
11925;DHT22;6022;48.768;18.608;2023-02-25T03:49:59;6.20;99.90
11925;DHT22;6022;48.768;18.608;2023-02-25T03:52:38;6.00;99.90
11925;DHT22;6022;48.768;18.608;2023-02-25T03:55:07;6.20;99.90
11925;DHT22;6022;48.768;18.608;2023-02-25T03:58:02;6.10;99.90
11925;DHT22;6022;48.768;18.608;2023-02-25T04:00:32;6.20;99.90
11925;DHT22;6022;48.768;18.608;2023-02-25T04:03:03;6.10;99.90
11925;DHT22;6022;48.768;18.608;2023-02-25T04:05:33;6.10;99.90
11925;DHT22;6022;48.768;18.608;2023-02-25T04:08:02;6.10;99.90
11925;DHT22;6022;48.768;18.608;2023-02-25T04:10:31;6.10;99.90
11925;DHT22;6022;48.768;18.608;2023-02-25T04:13:00;6.10;99.90
11925;DHT22;6022;48.768;18.608;2023-02-25T04:15:28;6.10;99.90
11925;DHT22;6022;48.768;18.608;2023-02-25T04:17:55;6.10;99.90
11925;DHT22;6022;48.768;18.608;2023-02-25T04:20:23;6.10;99.90
11925;DHT22;6022;48.768;18.608;2023-02-25T04:22:50;5.80;99.90
11925;DHT22;6022;48.768;18.608;2023-02-25T04:25:17;6.20;99.90
11925;DHT22;6022;48.768;18.608;2023-02-25T04:27:45;5.70;99.90
11925;DHT22;6022;48.768;18.608;2023-02-25T04:30:13;5.80;99.90
11925;DHT22;6022;48.768;18.608;2023-02-25T04:32:58;6.10;99.90
11925;DHT22;6022;48.768;18.608;2023-02-25T04:35:26;5.80;99.90
11925;DHT22;6022;48.768;18.608;2023-02-25T04:37:53;6.00;99.90
11925;DHT22;6022;48.768;18.608;2023-02-25T04:40:22;5.90;99.90
11925;DHT22;6022;48.768;18.608;2023-02-25T04:42:51;6.00;99.90
11925;DHT22;6022;48.768;18.608;2023-02-25T04:45:19;5.80;99.90
11925;DHT22;6022;48.768;18.608;2023-02-25T04:47:54;6.00;99.90
11925;DHT22;6022;48.768;18.608;2023-02-25T04:50:24;5.90;99.90
11925;DHT22;6022;48.768;18.608;2023-02-25T04:52:52;6.00;99.90
11925;DHT22;6022;48.768;18.608;2023-02-25T04:55:20;5.80;99.90
11925;DHT22;6022;48.768;18.608;2023-02-25T04:57:47;5.90;99.90
11925;DHT22;6022;48.768;18.608;2023-02-25T05:00:18;5.90;99.90
11925;DHT22;6022;48.768;18.608;2023-02-25T05:02:47;5.90;99.90
11925;DHT22;6022;48.768;18.608;2023-02-25T05:05:15;5.70;99.90
11925;DHT22;6022;48.768;18.608;2023-02-25T05:07:45;5.70;99.90
11925;DHT22;6022;48.768;18.608;2023-02-25T05:10:14;5.40;99.90
11925;DHT22;6022;48.768;18.608;2023-02-25T05:12:42;5.60;99.90
11925;DHT22;6022;48.768;18.608;2023-02-25T05:15:10;5.70;99.90
11925;DHT22;6022;48.768;18.608;2023-02-25T05:17:37;5.60;99.90
11925;DHT22;6022;48.768;18.608;2023-02-25T05:20:05;5.20;99.90
11925;DHT22;6022;48.768;18.608;2023-02-25T05:22:38;5.40;99.90
11925;DHT22;6022;48.768;18.608;2023-02-25T05:25:08;5.60;99.90
11925;DHT22;6022;48.768;18.608;2023-02-25T05:27:36;5.50;99.90
11925;DHT22;6022;48.768;18.608;2023-02-25T05:30:04;5.50;99.90
11925;DHT22;6022;48.768;18.608;2023-02-25T05:32:35;5.60;99.90
11925;DHT22;6022;48.768;18.608;2023-02-25T05:35:06;5.20;99.90
11925;DHT22;6022;48.768;18.608;2023-02-25T05:37:40;5.50;99.90
11925;DHT22;6022;48.768;18.608;2023-02-25T05:40:08;5.60;99.90
11925;DHT22;6022;48.768;18.608;2023-02-25T05:42:42;5.40;99.90
11925;DHT22;6022;48.768;18.608;2023-02-25T05:45:10;7.10;99.90
11925;DHT22;6022;48.768;18.608;2023-02-25T05:50:37;5.20;99.90
11925;DHT22;6022;48.768;18.608;2023-02-25T05:53:08;5.40;99.90
11925;DHT22;6022;48.768;18.608;2023-02-25T05:55:45;5.20;99.90
11925;DHT22;6022;48.768;18.608;2023-02-25T05:58:15;5.20;99.90
11925;DHT22;6022;48.768;18.608;2023-02-25T06:00:45;5.10;99.90
11925;DHT22;6022;48.768;18.608;2023-02-25T06:03:14;5.00;99.90
11925;DHT22;6022;48.768;18.608;2023-02-25T06:05:42;5.20;99.90
11925;DHT22;6022;48.768;18.608;2023-02-25T06:08:14;5.20;99.90
11925;DHT22;6022;48.768;18.608;2023-02-25T06:10:43;5.30;99.90
11925;DHT22;6022;48.768;18.608;2023-02-25T06:13:12;5.00;99.90
11925;DHT22;6022;48.768;18.608;2023-02-25T06:15:49;5.20;99.90
11925;DHT22;6022;48.768;18.608;2023-02-25T06:18:17;4.90;99.90
11925;DHT22;6022;48.768;18.608;2023-02-25T06:20:47;5.20;99.90
11925;DHT22;6022;48.768;18.608;2023-02-25T06:23:15;5.40;99.90
11925;DHT22;6022;48.768;18.608;2023-02-25T06:25:44;5.20;99.90
11925;DHT22;6022;48.768;18.608;2023-02-25T06:28:12;5.10;99.90
11925;DHT22;6022;48.768;18.608;2023-02-25T06:30:40;5.00;99.90
11925;DHT22;6022;48.768;18.608;2023-02-25T06:33:08;5.10;99.90
11925;DHT22;6022;48.768;18.608;2023-02-25T06:35:38;4.90;99.90
11925;DHT22;6022;48.768;18.608;2023-02-25T06:38:06;4.90;99.90
11925;DHT22;6022;48.768;18.608;2023-02-25T06:40:36;5.40;99.90
11925;DHT22;6022;48.768;18.608;2023-02-25T06:43:04;5.20;99.90
11925;DHT22;6022;48.768;18.608;2023-02-25T06:45:35;4.70;99.90
11925;DHT22;6022;48.768;18.608;2023-02-25T06:48:05;5.30;99.90
11925;DHT22;6022;48.768;18.608;2023-02-25T06:50:33;5.20;99.90
11925;DHT22;6022;48.768;18.608;2023-02-25T06:53:07;4.70;99.90
11925;DHT22;6022;48.768;18.608;2023-02-25T06:55:39;4.90;99.90
11925;DHT22;6022;48.768;18.608;2023-02-25T06:58:09;5.20;99.90
11925;DHT22;6022;48.768;18.608;2023-02-25T07:00:40;5.30;99.90
11925;DHT22;6022;48.768;18.608;2023-02-25T07:03:12;5.10;99.90
11925;DHT22;6022;48.768;18.608;2023-02-25T07:05:46;5.10;99.90
11925;DHT22;6022;48.768;18.608;2023-02-25T07:08:17;5.10;99.90
11925;DHT22;6022;48.768;18.608;2023-02-25T07:10:45;5.30;99.90
11925;DHT22;6022;48.768;18.608;2023-02-25T07:13:15;5.20;99.90
11925;DHT22;6022;48.768;18.608;2023-02-25T07:15:45;5.00;99.90
11925;DHT22;6022;48.768;18.608;2023-02-25T07:18:16;5.30;99.90
11925;DHT22;6022;48.768;18.608;2023-02-25T07:20:47;5.10;99.90
11925;DHT22;6022;48.768;18.608;2023-02-25T07:23:24;5.10;99.90
11925;DHT22;6022;48.768;18.608;2023-02-25T07:25:53;5.10;99.90
11925;DHT22;6022;48.768;18.608;2023-02-25T07:28:25;5.20;99.90
11925;DHT22;6022;48.768;18.608;2023-02-25T07:30:53;5.20;99.90
11925;DHT22;6022;48.768;18.608;2023-02-25T07:33:32;5.20;99.90
11925;DHT22;6022;48.768;18.608;2023-02-25T07:36:06;5.20;99.90
11925;DHT22;6022;48.768;18.608;2023-02-25T07:38:38;5.60;99.90
11925;DHT22;6022;48.768;18.608;2023-02-25T07:41:14;5.70;99.90
11925;DHT22;6022;48.768;18.608;2023-02-25T07:43:42;5.50;99.90
11925;DHT22;6022;48.768;18.608;2023-02-25T07:46:11;5.60;99.90
11925;DHT22;6022;48.768;18.608;2023-02-25T07:48:40;5.50;99.90
11925;DHT22;6022;48.768;18.608;2023-02-25T07:51:13;5.40;99.90
11925;DHT22;6022;48.768;18.608;2023-02-25T07:53:45;5.40;99.90
11925;DHT22;6022;48.768;18.608;2023-02-25T07:56:15;5.60;99.90
11925;DHT22;6022;48.768;18.608;2023-02-25T07:58:44;5.40;99.90
11925;DHT22;6022;48.768;18.608;2023-02-25T08:01:21;5.70;99.90
11925;DHT22;6022;48.768;18.608;2023-02-25T08:03:54;5.70;99.90
11925;DHT22;6022;48.768;18.608;2023-02-25T08:06:25;6.10;99.90
11925;DHT22;6022;48.768;18.608;2023-02-25T08:08:54;6.50;99.90
11925;DHT22;6022;48.768;18.608;2023-02-25T08:11:24;6.70;99.90
11925;DHT22;6022;48.768;18.608;2023-02-25T08:13:53;7.20;99.90
11925;DHT22;6022;48.768;18.608;2023-02-25T08:16:21;7.00;99.90
11925;DHT22;6022;48.768;18.608;2023-02-25T08:18:52;7.20;99.90
11925;DHT22;6022;48.768;18.608;2023-02-25T08:21:21;7.20;99.90
11925;DHT22;6022;48.768;18.608;2023-02-25T08:24:00;7.30;99.90
11925;DHT22;6022;48.768;18.608;2023-02-25T08:26:34;7.50;99.90
11925;DHT22;6022;48.768;18.608;2023-02-25T08:29:02;7.30;99.90
11925;DHT22;6022;48.768;18.608;2023-02-25T08:31:29;7.50;99.90
11925;DHT22;6022;48.768;18.608;2023-02-25T08:33:57;7.30;99.90
11925;DHT22;6022;48.768;18.608;2023-02-25T08:36:27;7.10;99.90
11925;DHT22;6022;48.768;18.608;2023-02-25T08:39:05;7.10;99.90
11925;DHT22;6022;48.768;18.608;2023-02-25T08:41:35;8.30;99.90
11925;DHT22;6022;48.768;18.608;2023-02-25T08:44:27;8.40;99.90
11925;DHT22;6022;48.768;18.608;2023-02-25T08:46:54;7.60;99.90
11925;DHT22;6022;48.768;18.608;2023-02-25T08:49:26;7.60;99.90
11925;DHT22;6022;48.768;18.608;2023-02-25T08:51:54;7.10;99.90
11925;DHT22;6022;48.768;18.608;2023-02-25T08:54:33;7.10;99.90
11925;DHT22;6022;48.768;18.608;2023-02-25T08:57:04;7.00;99.90
11925;DHT22;6022;48.768;18.608;2023-02-25T08:59:35;6.60;99.90
11925;DHT22;6022;48.768;18.608;2023-02-25T09:02:05;6.70;99.90
11925;DHT22;6022;48.768;18.608;2023-02-25T09:04:42;6.40;99.90
11925;DHT22;6022;48.768;18.608;2023-02-25T09:07:11;6.40;99.90
11925;DHT22;6022;48.768;18.608;2023-02-25T09:09:42;6.10;99.90
11925;DHT22;6022;48.768;18.608;2023-02-25T09:12:10;6.10;99.90
11925;DHT22;6022;48.768;18.608;2023-02-25T09:14:37;6.40;99.90
11925;DHT22;6022;48.768;18.608;2023-02-25T09:17:06;6.10;99.90
11925;DHT22;6022;48.768;18.608;2023-02-25T09:19:39;6.00;99.90
11925;DHT22;6022;48.768;18.608;2023-02-25T09:22:12;6.00;99.90
11925;DHT22;6022;48.768;18.608;2023-02-25T09:24:40;5.80;99.90
11925;DHT22;6022;48.768;18.608;2023-02-25T09:27:09;6.00;99.90
11925;DHT22;6022;48.768;18.608;2023-02-25T09:29:37;6.10;99.90
11925;DHT22;6022;48.768;18.608;2023-02-25T09:32:07;6.00;99.90
11925;DHT22;6022;48.768;18.608;2023-02-25T09:34:35;6.00;99.90
11925;DHT22;6022;48.768;18.608;2023-02-25T09:37:03;5.90;99.90
11925;DHT22;6022;48.768;18.608;2023-02-25T09:39:31;5.80;99.90
11925;DHT22;6022;48.768;18.608;2023-02-25T09:42:07;6.00;99.90
11925;DHT22;6022;48.768;18.608;2023-02-25T09:44:52;6.00;99.90
11925;DHT22;6022;48.768;18.608;2023-02-25T09:47:37;5.20;99.90
11925;DHT22;6022;48.768;18.608;2023-02-25T09:50:19;6.10;99.90
11925;DHT22;6022;48.768;18.608;2023-02-25T09:53:10;6.20;99.90
11925;DHT22;6022;48.768;18.608;2023-02-25T09:55:50;6.30;99.90
11925;DHT22;6022;48.768;18.608;2023-02-25T09:58:43;6.30;99.90
11925;DHT22;6022;48.768;18.608;2023-02-25T10:01:34;6.40;99.90
11925;DHT22;6022;48.768;18.608;2023-02-25T10:04:27;6.90;99.90
11925;DHT22;6022;48.768;18.608;2023-02-25T10:07:20;6.80;99.90
11925;DHT22;6022;48.768;18.608;2023-02-25T10:09:58;6.60;99.90
11925;DHT22;6022;48.768;18.608;2023-02-25T10:18:48;6.30;99.90
11925;DHT22;6022;48.768;18.608;2023-02-25T10:24:53;6.50;99.90
11925;DHT22;6022;48.768;18.608;2023-02-25T10:27:58;6.40;99.90
11925;DHT22;6022;48.768;18.608;2023-02-25T10:30:53;6.10;99.90
11925;DHT22;6022;48.768;18.608;2023-02-25T10:33:49;6.20;99.90
11925;DHT22;6022;48.768;18.608;2023-02-25T10:36:30;6.20;99.90
11925;DHT22;6022;48.768;18.608;2023-02-25T10:39:02;6.20;99.90
11925;DHT22;6022;48.768;18.608;2023-02-25T10:41:30;6.50;99.90
11925;DHT22;6022;48.768;18.608;2023-02-25T10:44:01;7.20;99.90
11925;DHT22;6022;48.768;18.608;2023-02-25T10:46:41;7.40;99.90
11925;DHT22;6022;48.768;18.608;2023-02-25T10:49:25;7.50;99.90
11925;DHT22;6022;48.768;18.608;2023-02-25T10:54:35;7.80;99.90
11925;DHT22;6022;48.768;18.608;2023-02-25T10:57:26;8.00;99.90
11925;DHT22;6022;48.768;18.608;2023-02-25T11:00:41;8.10;99.90
11925;DHT22;6022;48.768;18.608;2023-02-25T11:03:33;7.90;99.90
11925;DHT22;6022;48.768;18.608;2023-02-25T11:10:16;7.50;99.90
11925;DHT22;6022;48.768;18.608;2023-02-25T11:12:53;7.20;99.90
11925;DHT22;6022;48.768;18.608;2023-02-25T11:15:37;7.50;99.90
11925;DHT22;6022;48.768;18.608;2023-02-25T11:18:21;7.50;99.90
11925;DHT22;6022;48.768;18.608;2023-02-25T11:21:10;7.40;99.90
11925;DHT22;6022;48.768;18.608;2023-02-25T11:26:26;7.30;99.90
11925;DHT22;6022;48.768;18.608;2023-02-25T11:29:03;7.30;99.90
11925;DHT22;6022;48.768;18.608;2023-02-25T11:31:41;6.90;99.90
11925;DHT22;6022;48.768;18.608;2023-02-25T11:34:21;6.70;99.90
11925;DHT22;6022;48.768;18.608;2023-02-25T11:40:29;6.80;99.90
11925;DHT22;6022;48.768;18.608;2023-02-25T11:43:22;7.10;99.90
11925;DHT22;6022;48.768;18.608;2023-02-25T11:46:03;7.00;99.90
11925;DHT22;6022;48.768;18.608;2023-02-25T12:06:22;6.90;99.90
11925;DHT22;6022;48.768;18.608;2023-02-25T12:09:12;6.90;99.90
11925;DHT22;6022;48.768;18.608;2023-02-25T12:32:40;6.90;99.90
11925;DHT22;6022;48.768;18.608;2023-02-25T12:50:05;6.50;99.90
11925;DHT22;6022;48.768;18.608;2023-02-25T12:55:28;6.80;99.90
11925;DHT22;6022;48.768;18.608;2023-02-25T13:01:37;6.90;99.90
11925;DHT22;6022;48.768;18.608;2023-02-25T13:07:53;6.90;99.90
11925;DHT22;6022;48.768;18.608;2023-02-25T13:16:35;6.60;99.90
11925;DHT22;6022;48.768;18.608;2023-02-25T13:19:52;6.60;99.90
11925;DHT22;6022;48.768;18.608;2023-02-25T13:28:53;6.90;99.90
11925;DHT22;6022;48.768;18.608;2023-02-25T14:10:20;5.90;99.90
11925;DHT22;6022;48.768;18.608;2023-02-25T14:13:31;5.50;99.90
11925;DHT22;6022;48.768;18.608;2023-02-25T14:19:17;5.40;99.90
11925;DHT22;6022;48.768;18.608;2023-02-25T14:22:44;5.20;99.90
11925;DHT22;6022;48.768;18.608;2023-02-25T14:28:47;5.60;99.90
11925;DHT22;6022;48.768;18.608;2023-02-25T14:31:55;5.60;99.90
11925;DHT22;6022;48.768;18.608;2023-02-25T14:38:12;5.60;99.90
11925;DHT22;6022;48.768;18.608;2023-02-25T14:44:10;5.40;99.90
11925;DHT22;6022;48.768;18.608;2023-02-25T14:46:58;5.80;99.90
11925;DHT22;6022;48.768;18.608;2023-02-25T14:55:56;6.10;99.90
11925;DHT22;6022;48.768;18.608;2023-02-25T15:11:38;5.30;99.90
11925;DHT22;6022;48.768;18.608;2023-02-25T15:14:54;5.50;99.90
11925;DHT22;6022;48.768;18.608;2023-02-25T15:17:54;5.60;99.90
11925;DHT22;6022;48.768;18.608;2023-02-25T15:26:59;5.50;99.90
11925;DHT22;6022;48.768;18.608;2023-02-25T15:35:00;5.50;99.90
11925;DHT22;6022;48.768;18.608;2023-02-25T15:45:42;5.50;99.90
11925;DHT22;6022;48.768;18.608;2023-02-25T15:48:41;5.40;99.90
11925;DHT22;6022;48.768;18.608;2023-02-25T15:51:36;5.40;99.90
11925;DHT22;6022;48.768;18.608;2023-02-25T15:54:43;5.30;99.90
11925;DHT22;6022;48.768;18.608;2023-02-25T15:59:50;5.50;99.90
11925;DHT22;6022;48.768;18.608;2023-02-25T16:02:33;5.40;99.90
11925;DHT22;6022;48.768;18.608;2023-02-25T16:05:16;5.20;99.90
11925;DHT22;6022;48.768;18.608;2023-02-25T16:08:15;5.20;99.90
11925;DHT22;6022;48.768;18.608;2023-02-25T16:10:51;5.20;99.90
11925;DHT22;6022;48.768;18.608;2023-02-25T16:13:34;4.90;99.90
11925;DHT22;6022;48.768;18.608;2023-02-25T16:16:08;4.90;99.90
11925;DHT22;6022;48.768;18.608;2023-02-25T16:18:47;4.80;99.90
11925;DHT22;6022;48.768;18.608;2023-02-25T16:21:39;4.80;99.90
11925;DHT22;6022;48.768;18.608;2023-02-25T16:24:11;4.40;99.90
11925;DHT22;6022;48.768;18.608;2023-02-25T16:26:52;4.10;99.90
11925;DHT22;6022;48.768;18.608;2023-02-25T16:35:38;3.90;99.90
11925;DHT22;6022;48.768;18.608;2023-02-25T16:38:26;3.80;99.90
11925;DHT22;6022;48.768;18.608;2023-02-25T16:40:58;3.90;99.90
11925;DHT22;6022;48.768;18.608;2023-02-25T16:43:30;3.60;99.90
11925;DHT22;6022;48.768;18.608;2023-02-25T16:46:05;3.30;99.90
11925;DHT22;6022;48.768;18.608;2023-02-25T16:48:50;3.70;99.90
11925;DHT22;6022;48.768;18.608;2023-02-25T16:51:30;3.50;99.90
11925;DHT22;6022;48.768;18.608;2023-02-25T16:54:17;3.30;99.90
11925;DHT22;6022;48.768;18.608;2023-02-25T16:56:51;3.10;99.90
11925;DHT22;6022;48.768;18.608;2023-02-25T16:59:34;3.00;99.90
11925;DHT22;6022;48.768;18.608;2023-02-25T17:04:47;3.00;99.90
11925;DHT22;6022;48.768;18.608;2023-02-25T17:07:23;3.20;99.90
11925;DHT22;6022;48.768;18.608;2023-02-25T17:10:01;3.30;99.90
11925;DHT22;6022;48.768;18.608;2023-02-25T17:12:43;3.00;99.90
11925;DHT22;6022;48.768;18.608;2023-02-25T17:15:29;2.90;99.90
11925;DHT22;6022;48.768;18.608;2023-02-25T17:18:10;2.70;99.90
11925;DHT22;6022;48.768;18.608;2023-02-25T17:21:02;3.00;99.90
11925;DHT22;6022;48.768;18.608;2023-02-25T17:23:38;3.00;99.90
11925;DHT22;6022;48.768;18.608;2023-02-25T17:26:11;2.80;99.90
11925;DHT22;6022;48.768;18.608;2023-02-25T17:28:41;2.80;99.90
11925;DHT22;6022;48.768;18.608;2023-02-25T17:31:14;2.90;99.90
11925;DHT22;6022;48.768;18.608;2023-02-25T17:33:52;3.10;99.90
11925;DHT22;6022;48.768;18.608;2023-02-25T17:36:31;3.40;99.90
11925;DHT22;6022;48.768;18.608;2023-02-25T17:39:11;3.00;99.90
11925;DHT22;6022;48.768;18.608;2023-02-25T17:41:41;3.00;99.90
11925;DHT22;6022;48.768;18.608;2023-02-25T17:47:20;2.80;99.90
11925;DHT22;6022;48.768;18.608;2023-02-25T17:49:52;3.40;99.90
11925;DHT22;6022;48.768;18.608;2023-02-25T17:52:23;3.10;99.90
11925;DHT22;6022;48.768;18.608;2023-02-25T17:55:23;3.10;99.90
11925;DHT22;6022;48.768;18.608;2023-02-25T17:57:57;3.10;99.90
11925;DHT22;6022;48.768;18.608;2023-02-25T18:00:32;3.00;99.90
11925;DHT22;6022;48.768;18.608;2023-02-25T18:03:21;2.90;99.90
11925;DHT22;6022;48.768;18.608;2023-02-25T18:05:53;3.00;99.90
11925;DHT22;6022;48.768;18.608;2023-02-25T18:08:28;2.70;99.90
11925;DHT22;6022;48.768;18.608;2023-02-25T18:11:02;2.90;99.90
11925;DHT22;6022;48.768;18.608;2023-02-25T18:13:50;2.90;99.90
11925;DHT22;6022;48.768;18.608;2023-02-25T18:16:28;2.80;99.90
11925;DHT22;6022;48.768;18.608;2023-02-25T18:19:20;3.00;99.90
11925;DHT22;6022;48.768;18.608;2023-02-25T18:21:52;2.90;99.90
11925;DHT22;6022;48.768;18.608;2023-02-25T18:24:27;2.70;99.90
11925;DHT22;6022;48.768;18.608;2023-02-25T18:27:07;2.60;99.90
11925;DHT22;6022;48.768;18.608;2023-02-25T18:29:50;2.70;99.90
11925;DHT22;6022;48.768;18.608;2023-02-25T18:32:18;2.90;99.90
11925;DHT22;6022;48.768;18.608;2023-02-25T18:34:46;3.00;99.90
11925;DHT22;6022;48.768;18.608;2023-02-25T18:37:16;3.00;99.90
11925;DHT22;6022;48.768;18.608;2023-02-25T18:39:47;3.10;99.90
11925;DHT22;6022;48.768;18.608;2023-02-25T18:42:17;3.10;99.90
11925;DHT22;6022;48.768;18.608;2023-02-25T18:44:45;2.80;99.90
11925;DHT22;6022;48.768;18.608;2023-02-25T18:47:13;2.60;99.90
11925;DHT22;6022;48.768;18.608;2023-02-25T18:49:43;2.90;99.90
11925;DHT22;6022;48.768;18.608;2023-02-25T18:52:22;2.90;99.90
11925;DHT22;6022;48.768;18.608;2023-02-25T18:54:51;2.70;99.90
11925;DHT22;6022;48.768;18.608;2023-02-25T18:57:25;2.90;99.90
11925;DHT22;6022;48.768;18.608;2023-02-25T18:59:54;2.70;99.90
11925;DHT22;6022;48.768;18.608;2023-02-25T19:02:30;2.40;99.90
11925;DHT22;6022;48.768;18.608;2023-02-25T19:05:01;2.30;99.90
11925;DHT22;6022;48.768;18.608;2023-02-25T19:07:31;2.40;99.90
11925;DHT22;6022;48.768;18.608;2023-02-25T19:10:00;2.40;99.90
11925;DHT22;6022;48.768;18.608;2023-02-25T19:12:29;2.60;99.90
11925;DHT22;6022;48.768;18.608;2023-02-25T19:15:02;2.70;99.90
11925;DHT22;6022;48.768;18.608;2023-02-25T19:17:32;2.70;99.90
11925;DHT22;6022;48.768;18.608;2023-02-25T19:19:59;2.70;99.90
11925;DHT22;6022;48.768;18.608;2023-02-25T19:22:28;2.50;99.90
11925;DHT22;6022;48.768;18.608;2023-02-25T19:24:55;2.40;99.90
11925;DHT22;6022;48.768;18.608;2023-02-25T19:27:30;2.60;99.90
11925;DHT22;6022;48.768;18.608;2023-02-25T19:29:58;2.30;99.90
11925;DHT22;6022;48.768;18.608;2023-02-25T19:32:25;2.40;99.90
11925;DHT22;6022;48.768;18.608;2023-02-25T19:34:53;3.40;99.90
11925;DHT22;6022;48.768;18.608;2023-02-25T19:37:21;2.30;99.90
11925;DHT22;6022;48.768;18.608;2023-02-25T19:39:48;2.40;99.90
11925;DHT22;6022;48.768;18.608;2023-02-25T19:42:15;2.10;99.90
11925;DHT22;6022;48.768;18.608;2023-02-25T19:44:43;2.30;99.90
11925;DHT22;6022;48.768;18.608;2023-02-25T19:47:11;2.10;99.90
11925;DHT22;6022;48.768;18.608;2023-02-25T19:49:39;2.20;99.90
11925;DHT22;6022;48.768;18.608;2023-02-25T19:52:10;2.00;99.90
11925;DHT22;6022;48.768;18.608;2023-02-25T19:54:42;2.20;99.90
11925;DHT22;6022;48.768;18.608;2023-02-25T19:57:18;2.20;99.90
11925;DHT22;6022;48.768;18.608;2023-02-25T19:59:45;2.20;99.90
11925;DHT22;6022;48.768;18.608;2023-02-25T20:02:13;2.20;99.90
11925;DHT22;6022;48.768;18.608;2023-02-25T20:04:41;2.10;99.90
11925;DHT22;6022;48.768;18.608;2023-02-25T20:07:09;2.10;99.90
11925;DHT22;6022;48.768;18.608;2023-02-25T20:09:39;1.90;99.90
11925;DHT22;6022;48.768;18.608;2023-02-25T20:12:07;1.60;99.90
11925;DHT22;6022;48.768;18.608;2023-02-25T20:14:35;1.80;99.90
11925;DHT22;6022;48.768;18.608;2023-02-25T20:17:04;1.70;99.90
11925;DHT22;6022;48.768;18.608;2023-02-25T20:19:32;1.40;99.90
11925;DHT22;6022;48.768;18.608;2023-02-25T20:22:04;1.50;99.90
11925;DHT22;6022;48.768;18.608;2023-02-25T20:24:34;1.20;99.90
11925;DHT22;6022;48.768;18.608;2023-02-25T20:27:01;1.50;99.90
11925;DHT22;6022;48.768;18.608;2023-02-25T20:29:35;1.50;99.90
11925;DHT22;6022;48.768;18.608;2023-02-25T20:32:02;1.40;99.90
11925;DHT22;6022;48.768;18.608;2023-02-25T20:34:35;1.40;99.90